Time;durP1;ratioP1;P1;durP2;ratioP2;P2;SDS_P1;SDS_P2;PMS_P1;PMS_P2;Temp;Humidity;BMP_temperature;BMP_pressure;BME280_temperature;BME280_humidity;BME280_pressure;Samples;Min_cycle;Max_cycle;Signal;HPM_P1;HPM_P2
2021/04/02 00:00:46;;;;;;;50.75;32.55;;;11.40;99.90;;;;;;5032132;28;20057;-71
2021/04/02 00:03:36;;;;;;;47.47;32.70;;;11.30;99.90;;;;;;5030559;28;20077;-71
2021/04/02 00:06:07;;;;;;;49.70;32.42;;;11.30;99.90;;;;;;5025271;28;20504;-71
2021/04/02 00:08:34;;;;;;;54.78;35.72;;;11.30;99.90;;;;;;5024020;28;20050;-71
2021/04/02 00:11:06;;;;;;;52.88;36.05;;;11.20;99.90;;;;;;5031724;28;20401;-71
2021/04/02 00:13:41;;;;;;;48.53;33.05;;;11.20;99.90;;;;;;5029591;28;20049;-71
2021/04/02 00:16:09;;;;;;;51.42;34.53;;;11.10;99.90;;;;;;5044995;28;20089;-71
2021/04/02 00:18:36;;;;;;;55.83;34.35;;;11.00;99.90;;;;;;5030965;28;20388;-71
2021/04/02 00:21:07;;;;;;;52.35;33.42;;;11.00;99.90;;;;;;5030573;28;20069;-71
2021/04/02 00:23:35;;;;;;;46.75;32.47;;;11.00;99.90;;;;;;5030998;28;20499;-68
2021/04/02 00:26:11;;;;;;;48.20;30.75;;;11.00;99.90;;;;;;5029677;28;20041;-69
2021/04/02 00:28:51;;;;;;;43.20;31.05;;;11.00;99.90;;;;;;5027573;28;20096;-68
2021/04/02 00:31:19;;;;;;;46.58;31.38;;;10.90;99.90;;;;;;5025374;28;20041;-69
2021/04/02 00:33:46;;;;;;;41.33;30.08;;;10.90;99.90;;;;;;5029352;28;20107;-69
2021/04/02 00:36:13;;;;;;;49.08;32.13;;;10.80;99.90;;;;;;5013038;28;20078;-70
2021/04/02 00:38:40;;;;;;;51.95;34.22;;;10.80;99.90;;;;;;5030453;28;20107;-69
2021/04/02 00:41:11;;;;;;;45.38;31.35;;;10.70;99.90;;;;;;5030352;28;20073;-69
2021/04/02 00:43:40;;;;;;;45.05;31.27;;;10.70;99.90;;;;;;5028453;28;20134;-69
2021/04/02 00:46:08;;;;;;;45.13;31.73;;;10.60;99.90;;;;;;5028719;28;20178;-69
2021/04/02 00:48:38;;;;;;;47.65;30.63;;;10.60;99.90;;;;;;5045053;28;20583;-69
2021/04/02 00:51:11;;;;;;;46.72;30.83;;;10.60;99.90;;;;;;5028303;28;20377;-69
2021/04/02 00:53:42;;;;;;;44.05;30.02;;;10.60;99.90;;;;;;5029988;28;20038;-69
2021/04/02 00:56:10;;;;;;;45.65;29.60;;;10.60;99.90;;;;;;5029539;28;20053;-69
2021/04/02 00:58:38;;;;;;;46.92;32.15;;;10.70;99.90;;;;;;5029958;28;20125;-69
2021/04/02 01:01:06;;;;;;;45.45;30.45;;;10.80;99.90;;;;;;5011773;28;20058;-69
2021/04/02 01:03:35;;;;;;;44.00;30.30;;;10.90;99.90;;;;;;5025365;28;20464;-69
2021/04/02 01:06:08;;;;;;;46.22;31.98;;;11.00;99.90;;;;;;5028056;28;20464;-69
2021/04/02 01:08:37;;;;;;;51.90;31.35;;;11.00;99.90;;;;;;5030410;28;20507;-69
2021/04/02 01:11:10;;;;;;;43.13;30.27;;;11.10;99.90;;;;;;5029141;28;20038;-69
2021/04/02 01:13:51;;;;;;;50.30;32.33;;;11.10;99.90;;;;;;5028373;28;20045;-69
2021/04/02 01:16:22;;;;;;;47.47;33.70;;;11.20;99.90;;;;;;5028262;28;20050;-69
2021/04/02 01:19:17;;;;;;;49.15;30.40;;;11.20;99.90;;;;;;5024855;28;20140;-69
2021/04/02 01:21:52;;;;;;;48.63;30.65;;;11.20;99.90;;;;;;5028658;28;20132;-69
2021/04/02 01:24:22;;;;;;;42.88;30.90;;;11.20;99.90;;;;;;5029211;28;20038;-69
2021/04/02 01:26:57;;;;;;;45.40;31.02;;;11.30;99.90;;;;;;5025600;28;20045;-70
2021/04/02 01:29:37;;;;;;;42.78;29.63;;;11.30;99.90;;;;;;5012252;28;20510;-69
2021/04/02 01:32:08;;;;;;;46.80;29.58;;;11.30;99.90;;;;;;5021431;28;20046;-69
2021/04/02 01:34:40;;;;;;;44.88;27.65;;;11.20;99.90;;;;;;5026087;28;20069;-69
2021/04/02 01:37:11;;;;;;;42.53;29.38;;;11.30;99.90;;;;;;5025134;28;20054;-69
2021/04/02 01:39:43;;;;;;;41.00;27.43;;;11.20;99.90;;;;;;5031878;28;20383;-69
2021/04/02 01:42:17;;;;;;;39.40;26.63;;;11.30;99.90;;;;;;5031922;28;20049;-69
2021/04/02 01:44:44;;;;;;;35.50;26.17;;;11.20;99.90;;;;;;5032785;28;20034;-69
2021/04/02 01:47:13;;;;;;;36.97;24.63;;;11.20;99.90;;;;;;5031649;28;20038;-69
2021/04/02 01:49:43;;;;;;;40.63;25.20;;;11.20;99.90;;;;;;5047230;28;20335;-69
2021/04/02 01:52:12;;;;;;;38.28;25.45;;;11.20;99.90;;;;;;5030838;28;20049;-69
2021/04/02 01:54:41;;;;;;;42.15;26.05;;;11.20;99.90;;;;;;5030530;28;20412;-69
2021/04/02 01:57:12;;;;;;;37.38;25.60;;;11.10;99.90;;;;;;5031793;28;20080;-69
2021/04/02 01:59:42;;;;;;;36.25;26.10;;;11.10;99.90;;;;;;5030542;28;20508;-69
2021/04/02 02:02:15;;;;;;;33.05;23.42;;;11.10;99.90;;;;;;5031680;28;20495;-69
2021/04/02 02:04:45;;;;;;;32.10;22.95;;;11.00;99.90;;;;;;5018049;28;20065;-69
2021/04/02 02:07:14;;;;;;;28.90;22.55;;;10.90;99.90;;;;;;5029642;28;20034;-69
2021/04/02 02:09:59;;;;;;;30.13;22.42;;;10.80;99.90;;;;;;5031041;28;20072;-69
2021/04/02 02:12:40;;;;;;;33.20;22.85;;;10.80;99.90;;;;;;5047260;28;20057;-69
2021/04/02 02:15:23;;;;;;;27.80;22.02;;;10.80;99.90;;;;;;5035387;28;20638;-69
2021/04/02 02:17:56;;;;;;;32.25;20.40;;;10.80;99.90;;;;;;5046858;28;20504;-69
2021/04/02 02:20:28;;;;;;;26.25;20.38;;;10.70;99.90;;;;;;5031846;28;20049;-69
2021/04/02 02:22:59;;;;;;;23.30;19.33;;;10.70;99.90;;;;;;5029535;28;20038;-69
2021/04/02 02:25:29;;;;;;;24.25;18.77;;;10.70;99.90;;;;;;5032409;28;20432;-70
2021/04/02 02:28:04;;;;;;;20.55;16.92;;;10.70;99.90;;;;;;5030098;28;20120;-69
2021/04/02 02:30:33;;;;;;;20.85;17.17;;;10.70;99.90;;;;;;5028768;28;20156;-69
2021/04/02 02:33:20;;;;;;;20.88;17.38;;;10.70;99.90;;;;;;5030264;28;20140;-69
2021/04/02 02:35:54;;;;;;;19.52;16.73;;;10.70;99.90;;;;;;5045139;28;20148;-69
2021/04/02 02:38:23;;;;;;;22.40;16.85;;;10.60;99.90;;;;;;5026018;28;20073;-69
2021/04/02 02:40:52;;;;;;;19.40;17.17;;;10.50;99.90;;;;;;5030461;28;20478;-69
2021/04/02 02:43:21;;;;;;;19.30;16.98;;;10.50;99.90;;;;;;5031079;28;20038;-69
2021/04/02 02:45:48;;;;;;;19.90;16.63;;;10.40;99.90;;;;;;5027672;28;20104;-69
2021/04/02 02:48:16;;;;;;;17.42;15.73;;;10.40;99.90;;;;;;5025862;28;20100;-69
2021/04/02 02:50:52;;;;;;;18.88;16.00;;;10.40;99.90;;;;;;5030899;28;20080;-69
2021/04/02 02:53:22;;;;;;;22.77;15.82;;;10.30;99.90;;;;;;5047555;28;20057;-69
2021/04/02 02:55:52;;;;;;;17.55;15.32;;;10.30;99.90;;;;;;5031493;28;20045;-69
2021/04/02 02:58:26;;;;;;;17.10;15.32;;;10.20;99.90;;;;;;5022906;28;20057;-69
2021/04/02 03:00:55;;;;;;;17.48;15.52;;;10.10;99.90;;;;;;5034610;28;20046;-69
2021/04/02 03:03:25;;;;;;;16.48;14.80;;;10.10;99.90;;;;;;5042829;28;20921;-69
2021/04/02 03:05:58;;;;;;;19.13;14.88;;;10.00;99.90;;;;;;5013503;28;20520;-69
2021/04/02 03:08:42;;;;;;;19.25;15.48;;;10.00;99.90;;;;;;5029055;28;20037;-69
2021/04/02 03:11:12;;;;;;;19.02;16.80;;;9.90;99.90;;;;;;5043427;28;20048;-69
2021/04/02 03:13:41;;;;;;;16.77;14.63;;;9.90;99.90;;;;;;5024063;28;20053;-70
2021/04/02 03:16:11;;;;;;;18.90;15.98;;;9.90;99.90;;;;;;5055287;28;20436;-70
2021/04/02 03:18:41;;;;;;;16.48;14.77;;;9.80;99.90;;;;;;5030014;28;20071;-70
2021/04/02 03:21:11;;;;;;;17.75;14.35;;;9.80;99.90;;;;;;5018817;28;20120;-70
2021/04/02 03:23:42;;;;;;;17.63;14.85;;;9.70;99.90;;;;;;5029872;28;20119;-70
2021/04/02 03:26:11;;;;;;;16.70;14.75;;;9.70;99.90;;;;;;5046067;28;20034;-70
2021/04/02 03:28:45;;;;;;;17.20;14.70;;;9.60;99.90;;;;;;5013396;28;20103;-70
2021/04/02 03:31:15;;;;;;;15.82;14.32;;;9.40;99.90;;;;;;5043104;28;20049;-70
2021/04/02 03:33:50;;;;;;;17.20;14.98;;;9.30;99.90;;;;;;5030727;28;20519;-70
2021/04/02 03:36:28;;;;;;;16.83;14.80;;;9.20;99.90;;;;;;5029375;28;20056;-70
2021/04/02 03:39:09;;;;;;;15.88;14.38;;;9.20;99.90;;;;;;5029523;28;20052;-70
2021/04/02 03:41:39;;;;;;;15.73;14.23;;;9.10;99.90;;;;;;5045901;28;20049;-70
2021/04/02 03:44:12;;;;;;;14.73;13.15;;;9.00;99.90;;;;;;5020343;28;20038;-70
2021/04/02 03:46:43;;;;;;;16.97;15.37;;;8.90;99.90;;;;;;5030019;28;20088;-70
2021/04/02 03:49:13;;;;;;;;;;;8.80;99.90;;;;;;5030403;28;20068;-69
2021/04/02 03:51:47;;;;;;;16.15;14.60;;;8.70;99.90;;;;;;5028995;28;20407;-70
2021/04/02 03:54:16;;;;;;;14.52;13.10;;;8.70;99.90;;;;;;5046676;28;20053;-69
2021/04/02 03:56:47;;;;;;;16.25;14.55;;;8.60;99.90;;;;;;5025151;28;20057;-70
2021/04/02 03:59:24;;;;;;;14.88;13.35;;;8.60;99.90;;;;;;5029075;28;20056;-70
2021/04/02 04:01:54;;;;;;;15.25;13.82;;;8.50;99.90;;;;;;5023942;28;20072;-70
2021/04/02 04:04:26;;;;;;;15.68;14.15;;;8.40;99.90;;;;;;5028182;28;20495;-70
2021/04/02 04:07:05;;;;;;;15.88;14.35;;;8.30;99.90;;;;;;5041134;28;20045;-70
2021/04/02 04:09:35;;;;;;;15.73;14.10;;;8.30;99.90;;;;;;5039837;28;20056;-70
2021/04/02 04:12:12;;;;;;;15.20;13.63;;;8.30;99.90;;;;;;5029668;28;20124;-70
2021/04/02 04:14:47;;;;;;;15.55;13.80;;;8.20;99.90;;;;;;5033845;28;20555;-70
2021/04/02 04:17:20;;;;;;;15.07;13.50;;;8.20;99.90;;;;;;5030669;28;20057;-70
2021/04/02 04:19:52;;;;;;;14.88;13.38;;;8.20;99.90;;;;;;5045543;28;20140;-69
2021/04/02 04:22:23;;;;;;;15.40;13.68;;;8.10;99.90;;;;;;5028617;28;20065;-70
2021/04/02 04:24:53;;;;;;;15.02;13.43;;;8.10;99.90;;;;;;5027402;28;20159;-70
2021/04/02 04:27:21;;;;;;;14.98;13.48;;;8.20;99.90;;;;;;5025874;28;20095;-69
2021/04/02 04:29:51;;;;;;;15.30;13.80;;;8.20;99.90;;;;;;5030809;28;20046;-69
2021/04/02 04:32:20;;;;;;;14.63;13.15;;;8.10;99.90;;;;;;5028573;28;20452;-69
2021/04/02 04:34:49;;;;;;;15.32;13.82;;;8.10;99.90;;;;;;5029662;28;20517;-69
2021/04/02 04:37:18;;;;;;;14.70;13.13;;;8.10;99.90;;;;;;5044209;28;20099;-69
2021/04/02 04:39:48;;;;;;;14.48;13.00;;;8.00;99.90;;;;;;5030972;28;20053;-69
2021/04/02 04:42:17;;;;;;;16.67;13.15;;;8.00;99.90;;;;;;5027496;28;20132;-70
2021/04/02 04:44:49;;;;;;;15.30;13.77;;;8.00;99.90;;;;;;5028804;28;20038;-69
2021/04/02 04:47:17;;;;;;;15.00;13.48;;;7.90;99.90;;;;;;5027787;28;20048;-69
2021/04/02 04:49:44;;;;;;;15.25;13.70;;;7.80;99.90;;;;;;5044998;28;20054;-69
2021/04/02 04:52:15;;;;;;;14.32;12.82;;;7.70;99.90;;;;;;5044796;28;20050;-69
2021/04/02 04:54:50;;;;;;;14.30;13.00;;;7.70;99.90;;;;;;5028314;28;20107;-69
2021/04/02 04:57:18;;;;;;;15.02;13.50;;;7.60;99.90;;;;;;5022792;28;20091;-69
2021/04/02 04:59:47;;;;;;;14.55;12.98;;;7.60;99.90;;;;;;5025805;28;20056;-69
2021/04/02 05:02:16;;;;;;;13.20;11.90;;;7.50;99.90;;;;;;5026986;28;20144;-70
2021/04/02 05:04:44;;;;;;;14.13;12.80;;;7.50;99.90;;;;;;5023541;28;20042;-70
2021/04/02 05:07:13;;;;;;;14.02;12.63;;;7.50;99.90;;;;;;5010652;28;20069;-69
2021/04/02 05:09:42;;;;;;;12.82;11.60;;;7.60;99.90;;;;;;5023124;28;20072;-69
2021/04/02 05:12:11;;;;;;;13.18;11.48;;;7.60;99.90;;;;;;5029016;28;20083;-69
2021/04/02 05:14:40;;;;;;;12.48;11.13;;;7.60;99.90;;;;;;5034100;28;20095;-69
2021/04/02 05:17:09;;;;;;;12.73;11.50;;;7.60;99.90;;;;;;5031858;28;20049;-69
2021/04/02 05:19:38;;;;;;;13.15;11.95;;;7.70;99.90;;;;;;5033749;28;20401;-69
2021/04/02 05:22:08;;;;;;;13.20;11.90;;;7.70;99.90;;;;;;5026922;28;20136;-69
2021/04/02 05:24:36;;;;;;;12.55;11.43;;;7.80;99.90;;;;;;5034792;28;20408;-69
2021/04/02 05:27:05;;;;;;;12.60;10.77;;;7.80;99.90;;;;;;5033106;28;20060;-69
2021/04/02 05:29:32;;;;;;;12.68;11.48;;;7.80;99.90;;;;;;5025702;28;20061;-69
2021/04/02 05:32:00;;;;;;;12.10;11.00;;;7.80;99.90;;;;;;5030989;28;20088;-69
2021/04/02 05:34:27;;;;;;;11.75;10.65;;;7.80;99.90;;;;;;5033685;28;20057;-69
2021/04/02 05:36:53;;;;;;;12.40;11.20;;;7.80;99.90;;;;;;5031939;28;20045;-69
2021/04/02 05:39:20;;;;;;;11.32;10.20;;;7.90;99.90;;;;;;5016872;28;20482;-70
2021/04/02 05:41:52;;;;;;;13.68;11.10;;;7.90;99.90;;;;;;5032467;28;20659;-68
2021/04/02 05:44:28;;;;;;;12.57;10.75;;;7.90;99.90;;;;;;5023847;28;20139;-69
2021/04/02 05:47:01;;;;;;;11.02;9.93;;;7.90;99.90;;;;;;5028400;28;20119;-69
2021/04/02 05:49:29;;;;;;;12.13;10.80;;;7.90;99.90;;;;;;5015672;28;20128;-70
2021/04/02 05:52:00;;;;;;;12.80;11.25;;;7.90;99.90;;;;;;5019352;28;20072;-68
2021/04/02 05:54:33;;;;;;;12.30;11.20;;;7.90;99.90;;;;;;5027984;28;20054;-69
2021/04/02 05:57:01;;;;;;;11.68;10.60;;;7.90;99.90;;;;;;5019508;28;20076;-69
2021/04/02 05:59:28;;;;;;;12.45;11.32;;;7.90;99.90;;;;;;5016226;28;20060;-68
2021/04/02 06:01:55;;;;;;;11.55;10.45;;;8.00;99.90;;;;;;5022487;28;20081;-68
2021/04/02 06:04:22;;;;;;;12.13;10.98;;;8.00;99.90;;;;;;5027812;28;20504;-68
2021/04/02 06:06:49;;;;;;;12.07;10.90;;;8.00;99.90;;;;;;5027966;28;20050;-68
2021/04/02 06:09:16;;;;;;;11.15;9.85;;;8.20;99.90;;;;;;5033947;28;20095;-68
2021/04/02 06:11:43;;;;;;;11.10;10.10;;;8.20;99.90;;;;;;5023148;28;20056;-69
2021/04/02 06:14:10;;;;;;;9.95;9.00;;;8.20;99.90;;;;;;5027928;28;20103;-70
2021/04/02 06:16:37;;;;;;;11.63;10.48;;;8.30;99.90;;;;;;5023430;28;20057;-68
2021/04/02 06:19:09;;;;;;;10.90;9.90;;;8.40;99.90;;;;;;5032250;28;20053;-69
2021/04/02 06:21:51;;;;;;;11.90;10.80;;;8.40;99.90;;;;;;5032093;28;20131;-70
2021/04/02 06:24:34;;;;;;;;;;;8.40;99.90;;;;;;5033080;28;20041;-70
2021/04/02 06:27:04;;;;;;;12.55;11.45;;;8.50;99.90;;;;;;5030395;28;19963;-70
2021/04/02 06:29:36;;;;;;;12.35;11.15;;;8.50;99.90;;;;;;5026753;28;20053;-70
2021/04/02 06:32:03;;;;;;;11.93;10.77;;;8.60;99.90;;;;;;5011216;28;20594;-70
2021/04/02 06:34:30;;;;;;;11.25;10.25;;;8.60;99.90;;;;;;5018755;28;20077;-70
2021/04/02 06:37:02;;;;;;;12.05;10.63;;;8.70;99.90;;;;;;5013611;28;20571;-70
2021/04/02 06:39:31;;;;;;;11.63;10.57;;;8.80;99.90;;;;;;5026271;28;20597;-70
2021/04/02 06:42:02;;;;;;;11.30;10.30;;;8.90;99.90;;;;;;5026423;28;20053;-70
2021/04/02 06:44:31;;;;;;;11.27;10.32;;;9.10;99.90;;;;;;5022581;28;20049;-70
2021/04/02 06:46:59;;;;;;;11.25;10.25;;;9.30;99.90;;;;;;5023995;28;20053;-70
2021/04/02 06:49:27;;;;;;;11.45;10.45;;;9.50;99.90;;;;;;5030814;28;20099;-70
2021/04/02 06:51:54;;;;;;;11.52;10.43;;;9.50;99.90;;;;;;5031403;28;20103;-70
2021/04/02 06:54:25;;;;;;;12.57;11.30;;;9.50;99.90;;;;;;5032857;28;20057;-70
2021/04/02 06:57:05;;;;;;;11.68;10.63;;;9.60;99.90;;;;;;5046864;28;20490;-70
2021/04/02 06:59:33;;;;;;;11.73;10.60;;;9.50;99.90;;;;;;5031780;28;20049;-69
2021/04/02 07:02:03;;;;;;;13.30;11.15;;;9.60;99.90;;;;;;5028682;28;20549;-69
2021/04/02 07:04:31;;;;;;;12.02;10.85;;;9.60;99.90;;;;;;5031990;28;20053;-69
2021/04/02 07:07:02;;;;;;;12.05;10.80;;;9.70;99.90;;;;;;5018401;28;20415;-69
2021/04/02 07:09:33;;;;;;;11.05;10.05;;;9.80;99.90;;;;;;5030736;28;20115;-70
2021/04/02 07:12:02;;;;;;;11.85;10.73;;;10.00;99.90;;;;;;5045482;28;20061;-70
2021/04/02 07:14:33;;;;;;;11.80;10.70;;;10.20;99.90;;;;;;5033196;28;20403;-69
2021/04/02 07:17:00;;;;;;;12.27;11.07;;;10.20;99.90;;;;;;5034669;28;20419;-69
2021/04/02 07:19:28;;;;;;;12.50;11.27;;;10.20;99.90;;;;;;5027524;28;20153;-69
2021/04/02 07:21:55;;;;;;;11.20;10.20;;;10.20;99.90;;;;;;5029839;28;20069;-69
2021/04/02 07:24:22;;;;;;;11.65;10.55;;;10.40;99.90;;;;;;5026130;28;20077;-70
2021/04/02 07:26:50;;;;;;;12.43;11.23;;;10.50;99.90;;;;;;5030644;28;20057;-70
2021/04/02 07:29:20;;;;;;;11.27;10.18;;;10.70;99.90;;;;;;5030379;28;20072;-70
2021/04/02 07:31:50;;;;;;;11.52;10.52;;;10.90;99.90;;;;;;5026551;28;20073;-70
2021/04/02 07:34:18;;;;;;;10.93;9.90;;;11.20;99.90;;;;;;5026385;28;20057;-70
2021/04/02 07:36:49;;;;;;;12.35;11.10;;;11.40;99.90;;;;;;5006644;28;20056;-70
2021/04/02 07:39:20;;;;;;;11.43;10.32;;;11.60;99.90;;;;;;5024348;28;20057;-69
2021/04/02 07:41:52;;;;;;;11.63;10.55;;;11.60;99.90;;;;;;5025963;28;20061;-70
2021/04/02 07:44:19;;;;;;;11.50;10.35;;;11.60;99.90;;;;;;5026471;28;20053;-69
2021/04/02 07:47:08;;;;;;;11.57;10.48;;;11.70;99.90;;;;;;5024646;28;20448;-70
2021/04/02 07:49:57;;;;;;;11.13;10.13;;;11.80;99.90;;;;;;5019380;28;20569;-69
2021/04/02 07:52:38;;;;;;;11.82;10.70;;;11.70;99.90;;;;;;5028609;28;20053;-69
2021/04/02 07:55:10;;;;;;;11.48;10.35;;;11.60;99.90;;;;;;5027596;28;20038;-70
2021/04/02 07:58:06;;;;;;;11.90;10.80;;;11.40;99.90;;;;;;5029047;28;20073;-71
2021/04/02 08:00:35;;;;;;;12.10;11.00;;;11.10;99.90;;;;;;5024602;28;20041;-71
2021/04/02 08:03:13;;;;;;;11.60;10.60;;;11.10;99.90;;;;;;5022810;28;20053;-72
2021/04/02 08:05:58;;;;;;;11.55;10.45;;;11.30;99.90;;;;;;5032952;28;20076;-71
2021/04/02 08:08:27;;;;;;;11.40;10.40;;;11.40;99.90;;;;;;5031047;28;20054;-70
2021/04/02 08:11:10;;;;;;;11.13;10.02;;;11.60;99.90;;;;;;5031664;28;20033;-68
2021/04/02 08:13:56;;;;;;;10.75;9.75;;;11.70;99.90;;;;;;5029575;28;20380;-68
2021/04/02 08:16:32;;;;;;;10.70;9.80;;;11.80;99.90;;;;;;5035347;28;20053;-69
2021/04/02 08:19:03;;;;;;;10.85;9.88;;;11.90;99.90;;;;;;5027646;28;20061;-71
2021/04/02 08:21:36;;;;;;;11.60;10.48;;;12.00;99.90;;;;;;5027338;28;20068;-68
2021/04/02 08:24:05;;;;;;;11.25;10.07;;;12.10;99.90;;;;;;5029681;28;20045;-70
2021/04/02 08:26:33;;;;;;;11.50;10.40;;;12.10;99.90;;;;;;5030315;28;20057;-68
2021/04/02 08:29:02;;;;;;;10.63;9.73;;;12.20;99.90;;;;;;5026591;28;20046;-68
2021/04/02 08:31:28;;;;;;;11.25;10.25;;;12.20;99.90;;;;;;5023648;28;20129;-69
2021/04/02 08:33:56;;;;;;;11.45;10.50;;;12.20;99.90;;;;;;5025059;28;20127;-68
2021/04/02 08:36:24;;;;;;;11.32;10.32;;;12.20;99.90;;;;;;5015563;28;20061;-69
2021/04/02 08:38:52;;;;;;;10.95;9.93;;;11.90;99.90;;;;;;5028912;28;20073;-69
2021/04/02 08:41:21;;;;;;;10.48;9.52;;;11.90;99.90;;;;;;5026694;28;20109;-69
2021/04/02 08:43:50;;;;;;;11.18;10.18;;;11.80;99.90;;;;;;5028927;28;20061;-68
2021/04/02 08:46:18;;;;;;;10.93;9.93;;;11.90;99.90;;;;;;5028586;28;20045;-68
2021/04/02 08:48:46;;;;;;;11.32;10.32;;;12.00;99.90;;;;;;5032160;28;20069;-70
2021/04/02 08:51:20;;;;;;;11.20;10.20;;;12.00;99.90;;;;;;5010605;28;20148;-68
2021/04/02 08:53:47;;;;;;;11.63;10.52;;;12.20;99.90;;;;;;5030251;28;20108;-70
2021/04/02 08:56:19;;;;;;;11.45;10.45;;;12.20;99.90;;;;;;5032179;28;20397;-68
2021/04/02 08:58:47;;;;;;;11.55;10.45;;;12.20;99.90;;;;;;5023557;28;20820;-68
2021/04/02 09:01:17;;;;;;;12.63;11.40;;;12.40;99.90;;;;;;5019716;28;20081;-69
2021/04/02 09:03:45;;;;;;;12.65;11.55;;;12.50;99.90;;;;;;5030654;28;20046;-70
2021/04/02 09:06:13;;;;;;;11.85;10.75;;;12.40;99.90;;;;;;5033350;28;20046;-70
2021/04/02 09:08:40;;;;;;;14.57;11.60;;;12.40;99.90;;;;;;5029325;28;20052;-68
2021/04/02 09:11:11;;;;;;;11.63;10.63;;;12.30;99.90;;;;;;5023151;28;20056;-69
2021/04/02 09:13:41;;;;;;;11.38;10.43;;;12.50;99.90;;;;;;5024484;28;20084;-70
2021/04/02 09:16:10;;;;;;;11.35;10.35;;;12.40;99.90;;;;;;5027546;28;20463;-70
2021/04/02 09:18:48;;;;;;;11.45;10.40;;;12.50;99.90;;;;;;5050540;28;20051;-69
2021/04/02 09:21:16;;;;;;;11.98;10.88;;;12.60;99.90;;;;;;5029546;28;20476;-70
2021/04/02 09:23:45;;;;;;;11.48;10.40;;;12.80;99.90;;;;;;5048768;28;20055;-69
2021/04/02 09:26:12;;;;;;;11.57;10.52;;;12.60;99.90;;;;;;5032446;28;20435;-69
2021/04/02 09:28:39;;;;;;;11.52;10.52;;;12.70;99.90;;;;;;5027074;28;20077;-70
2021/04/02 09:31:23;;;;;;;11.52;10.43;;;12.60;99.90;;;;;;5031091;28;20069;-69
2021/04/02 09:34:05;;;;;;;11.25;10.23;;;12.40;99.90;;;;;;5027218;28;20053;-69
2021/04/02 09:36:38;;;;;;;13.00;11.80;;;12.40;99.90;;;;;;5032654;28;20484;-69
2021/04/02 09:39:09;;;;;;;13.50;11.95;;;12.20;99.90;;;;;;5030265;28;20073;-69
2021/04/02 09:41:40;;;;;;;10.90;9.90;;;12.40;99.90;;;;;;5029814;28;20073;-70
2021/04/02 09:44:13;;;;;;;10.45;9.45;;;12.30;99.90;;;;;;5031985;28;20045;-70
2021/04/02 09:46:42;;;;;;;11.48;10.48;;;12.30;99.90;;;;;;5026380;28;20042;-69
2021/04/02 09:49:20;;;;;;;10.98;9.98;;;12.20;99.90;;;;;;5032659;28;20041;-69
2021/04/02 09:51:52;;;;;;;10.98;9.98;;;12.20;99.90;;;;;;5032181;28;20061;-70
2021/04/02 09:54:19;;;;;;;;;;;12.30;99.90;;;;;;5025306;28;20555;-69
2021/04/02 09:56:48;;;;;;;10.30;9.40;;;12.50;99.90;;;;;;5043322;28;19983;-70
2021/04/02 09:59:15;;;;;;;10.05;9.25;;;12.30;99.90;;;;;;5033372;28;20122;-69
2021/04/02 10:01:43;;;;;;;12.52;11.32;;;12.20;99.90;;;;;;5027555;28;20052;-69
2021/04/02 10:04:11;;;;;;;9.13;8.32;;;12.00;99.90;;;;;;5030084;28;20045;-69
2021/04/02 10:06:39;;;;;;;9.95;9.07;;;12.00;99.90;;;;;;5022971;28;20050;-69
2021/04/02 10:09:08;;;;;;;9.55;8.65;;;11.90;99.90;;;;;;5031053;28;20041;-70
2021/04/02 10:11:37;;;;;;;10.43;9.40;;;12.10;99.90;;;;;;5026711;28;20080;-69
2021/04/02 10:14:05;;;;;;;8.60;7.82;;;12.10;99.90;;;;;;5018782;28;20661;-69
2021/04/02 10:16:33;;;;;;;10.60;9.68;;;12.20;99.90;;;;;;5031813;28;20484;-70
2021/04/02 10:19:01;;;;;;;10.15;9.23;;;12.20;99.90;;;;;;5030555;28;20056;-69
2021/04/02 10:21:29;;;;;;;10.00;9.10;;;12.20;99.90;;;;;;5023920;28;20049;-69
2021/04/02 10:23:56;;;;;;;10.00;9.10;;;12.20;99.90;;;;;;5025168;28;20587;-70
2021/04/02 10:26:23;;;;;;;9.77;8.98;;;12.30;99.90;;;;;;5029850;28;20074;-70
2021/04/02 10:28:49;;;;;;;10.43;9.52;;;12.10;99.90;;;;;;5031919;28;20477;-70
2021/04/02 10:31:16;;;;;;;10.55;9.65;;;12.10;99.90;;;;;;5031120;28;20073;-69
2021/04/02 10:33:45;;;;;;;10.55;9.65;;;11.60;99.90;;;;;;5014514;28;20054;-69
2021/04/02 10:36:13;;;;;;;12.38;11.18;;;11.50;99.90;;;;;;5013062;28;20456;-70
2021/04/02 10:38:40;;;;;;;10.82;9.82;;;11.50;99.90;;;;;;5031527;28;20546;-71
2021/04/02 10:41:08;;;;;;;11.40;10.30;;;11.40;99.90;;;;;;5021355;28;20139;-69
2021/04/02 10:43:35;;;;;;;10.40;9.50;;;11.40;99.90;;;;;;5028358;28;20075;-69
2021/04/02 10:46:03;;;;;;;10.63;9.73;;;11.50;99.90;;;;;;5026249;28;20407;-69
2021/04/02 10:48:30;;;;;;;10.80;9.80;;;11.30;99.90;;;;;;4997548;28;20184;-69
2021/04/02 10:50:58;;;;;;;10.93;9.93;;;11.40;99.90;;;;;;5017775;28;20053;-70
2021/04/02 10:53:26;;;;;;;10.32;9.43;;;11.30;99.90;;;;;;5022256;28;20195;-71
2021/04/02 10:55:53;;;;;;;10.45;9.43;;;11.50;99.90;;;;;;5016261;28;20475;-70
2021/04/02 10:58:21;;;;;;;10.30;9.40;;;11.60;99.90;;;;;;5018962;28;20057;-69
2021/04/02 11:00:47;;;;;;;10.93;10.02;;;11.70;99.90;;;;;;5015145;28;20065;-69
2021/04/02 11:03:15;;;;;;;10.07;9.27;;;11.80;99.90;;;;;;5017267;28;20094;-70
2021/04/02 11:05:42;;;;;;;9.43;8.52;;;11.70;99.90;;;;;;5024613;28;20103;-69
2021/04/02 11:08:09;;;;;;;9.00;8.30;;;11.90;99.90;;;;;;5028244;28;20049;-70
2021/04/02 11:10:36;;;;;;;9.55;8.65;;;12.00;99.90;;;;;;5018252;28;20103;-71
2021/04/02 11:13:03;;;;;;;8.90;8.20;;;12.10;99.90;;;;;;5012390;28;20046;-69
2021/04/02 11:15:33;;;;;;;8.43;7.82;;;12.10;99.90;;;;;;5032254;28;20048;-69
2021/04/02 11:18:00;;;;;;;9.13;8.43;;;12.00;99.90;;;;;;5014029;28;20049;-69
2021/04/02 11:20:28;;;;;;;9.88;9.07;;;12.10;99.90;;;;;;5022600;28;20075;-69
2021/04/02 11:22:58;;;;;;;8.77;8.07;;;12.00;99.90;;;;;;5028692;28;20079;-69
2021/04/02 11:25:25;;;;;;;8.43;7.55;;;11.80;99.90;;;;;;5028976;28;20526;-68
2021/04/02 11:27:53;;;;;;;9.38;8.68;;;11.80;99.90;;;;;;5025666;28;20450;-69
2021/04/02 11:30:21;;;;;;;9.80;9.10;;;12.00;99.90;;;;;;5029193;28;20521;-70
2021/04/02 11:32:49;;;;;;;9.13;8.40;;;12.20;99.90;;;;;;5024613;28;20451;-70
2021/04/02 11:35:17;;;;;;;9.30;8.50;;;12.20;99.90;;;;;;5018583;28;20485;-69
2021/04/02 11:37:44;;;;;;;9.55;8.75;;;11.90;99.90;;;;;;5012481;28;20118;-69
2021/04/02 11:40:13;;;;;;;9.48;8.68;;;11.90;99.90;;;;;;5027743;28;20586;-68
2021/04/02 11:42:40;;;;;;;9.20;8.40;;;12.00;99.90;;;;;;5029235;28;20103;-70
2021/04/02 11:45:11;;;;;;;9.93;9.13;;;12.20;99.90;;;;;;5029779;28;20432;-71
2021/04/02 11:47:39;;;;;;;9.63;8.85;;;12.20;99.90;;;;;;5021417;28;20096;-69
2021/04/02 11:50:10;;;;;;;9.07;8.38;;;12.40;99.90;;;;;;5029114;28;20080;-69
2021/04/02 11:52:38;;;;;;;9.23;8.45;;;12.50;99.90;;;;;;5026751;28;20094;-69
2021/04/02 11:55:07;;;;;;;9.07;8.38;;;12.40;99.90;;;;;;5043744;28;20074;-68
2021/04/02 11:57:36;;;;;;;9.00;8.30;;;12.50;99.90;;;;;;5030297;28;20062;-68
2021/04/02 12:00:09;;;;;;;8.30;7.70;;;12.60;99.90;;;;;;5028137;28;20065;-68
2021/04/02 12:02:41;;;;;;;8.00;7.40;;;12.80;99.90;;;;;;5028623;28;20103;-68
2021/04/02 12:05:08;;;;;;;8.95;8.25;;;12.80;99.90;;;;;;5026504;28;20053;-68
2021/04/02 12:07:36;;;;;;;8.85;8.20;;;12.50;99.90;;;;;;5053688;28;20049;-69
2021/04/02 12:10:05;;;;;;;8.85;8.15;;;12.80;99.90;;;;;;5030865;28;20095;-69
2021/04/02 12:12:33;;;;;;;8.77;8.07;;;12.90;99.90;;;;;;5019116;28;20057;-69
2021/04/02 12:15:00;;;;;;;8.80;8.10;;;13.20;99.90;;;;;;5038246;28;20049;-70
2021/04/02 12:17:27;;;;;;;8.70;8.00;;;13.40;99.90;;;;;;5030905;28;20057;-69
2021/04/02 12:19:54;;;;;;;8.32;7.68;;;13.30;99.90;;;;;;5013999;28;20126;-69
2021/04/02 12:22:21;;;;;;;8.43;7.82;;;13.30;99.90;;;;;;5031675;28;20049;-69
2021/04/02 12:24:48;;;;;;;9.20;8.40;;;13.10;99.90;;;;;;5031414;28;20045;-71
2021/04/02 12:27:15;;;;;;;9.48;8.70;;;13.20;99.90;;;;;;5011794;28;20127;-69
2021/04/02 12:29:44;;;;;;;9.13;8.35;;;13.10;99.90;;;;;;5031383;28;20057;-69
2021/04/02 12:32:11;;;;;;;8.77;8.07;;;12.70;99.90;;;;;;5043561;28;20103;-69
2021/04/02 12:34:38;;;;;;;8.82;8.07;;;12.70;99.90;;;;;;5024778;28;20111;-69
2021/04/02 12:37:07;;;;;;;8.40;7.70;;;13.00;99.90;;;;;;5026284;28;20527;-69
2021/04/02 12:39:36;;;;;;;8.70;7.90;;;13.20;99.90;;;;;;5031953;28;20061;-69
2021/04/02 12:42:03;;;;;;;8.63;7.93;;;13.20;99.90;;;;;;5024964;28;20049;-69
2021/04/02 12:44:30;;;;;;;9.10;8.25;;;13.40;99.90;;;;;;5031080;28;20038;-70
2021/04/02 12:46:57;;;;;;;9.15;8.45;;;13.50;99.90;;;;;;5020035;28;20081;-69
2021/04/02 12:49:24;;;;;;;10.50;9.52;;;13.70;99.90;;;;;;5030464;28;20057;-69
2021/04/02 12:51:52;;;;;;;10.10;9.30;;;13.80;99.90;;;;;;5028219;28;20472;-69